Time;durP1;ratioP1;P1;durP2;ratioP2;P2;SDS_P1;SDS_P2;PMS_P1;PMS_P2;Temp;Humidity;BMP_temperature;BMP_pressure;BME280_temperature;BME280_humidity;BME280_pressure;Samples;Min_cycle;Max_cycle;Signal;HPM_P1;HPM_P2
2022/07/15 00:02:13;;;;;;;6.00;4.50;;;;;;;17.88;86.31;98092.62;106598;1276;138031;-79
2022/07/15 00:04:54;;;;;;;6.80;3.90;;;;;;;17.90;86.33;98089.06;106146;1274;22989;-81
2022/07/15 00:07:21;;;;;;;4.70;4.10;;;;;;;17.91;86.00;98092.05;106890;1276;25364;-78
2022/07/15 00:12:49;;;;;;;4.60;3.40;;;;;;;17.78;85.37;98111.86;106552;1276;22702;-79
2022/07/15 00:15:31;;;;;;;5.80;3.70;;;;;;;17.71;85.68;98119.53;105879;1276;137397;-79
2022/07/15 00:18:03;;;;;;;6.60;3.70;;;;;;;17.68;86.01;98117.32;106462;1276;24293;-79
2022/07/15 00:20:44;;;;;;;4.60;4.20;;;;;;;17.66;86.17;98114.77;106533;1277;137931;-80
2022/07/15 00:23:11;;;;;;;3.90;3.60;;;;;;;17.64;86.09;98112.37;106120;1276;23512;-79
2022/07/15 00:25:52;;;;;;;4.50;3.90;;;;;;;17.63;86.05;98105.70;106161;1276;138010;-79
2022/07/15 00:28:33;;;;;;;4.90;3.80;;;;;;;17.61;86.15;98115.56;106261;1275;25350;-79
2022/07/15 00:31:06;;;;;;;4.70;4.20;;;;;;;17.61;86.39;98109.16;106108;1274;22708;-79
2022/07/15 00:33:47;;;;;;;4.40;4.00;;;;;;;17.61;86.45;98119.34;106193;1276;137427;-81
2022/07/15 00:36:14;;;;;;;5.10;4.60;;;;;;;17.58;86.31;98122.32;106704;1275;22572;-80
2022/07/15 00:38:41;;;;;;;5.00;4.40;;;;;;;17.54;86.29;98118.73;106642;1274;137962;-80
2022/07/15 00:41:08;;;;;;;4.90;4.50;;;;;;;17.50;86.26;98118.00;106207;1274;25514;-80
2022/07/15 00:43:35;;;;;;;4.60;3.70;;;;;;;17.44;86.30;98109.81;106263;1276;138006;-80
2022/07/15 00:46:18;;;;;;;7.20;4.10;;;;;;;17.41;86.44;98108.36;106255;1276;22620;-80
2022/07/15 00:48:45;;;;;;;7.00;4.10;;;;;;;17.40;86.48;98103.52;106430;1276;22560;-80
2022/07/15 00:51:13;;;;;;;4.30;4.00;;;;;;;17.40;86.70;98102.38;106189;1277;137651;-79
2022/07/15 00:53:42;;;;;;;4.90;4.20;;;;;;;17.38;86.66;98099.16;106477;1274;22525;-79
2022/07/15 00:56:10;;;;;;;8.30;4.40;;;;;;;17.35;86.65;98098.39;106619;1277;137930;-79
2022/07/15 00:58:40;;;;;;;3.90;3.60;;;;;;;17.32;86.52;98089.23;106554;1274;23176;-79
2022/07/15 01:01:07;;;;;;;;;;;;;;;17.27;86.59;98087.45;106671;1276;22679;-79
2022/07/15 01:03:34;;;;;;;4.90;4.10;;;;;;;17.23;86.78;98087.01;106558;1276;124457;-79
2022/07/15 01:06:04;;;;;;;4.10;3.80;;;;;;;17.21;86.85;98091.45;106899;1275;22551;-79
2022/07/15 01:08:31;;;;;;;4.30;3.90;;;;;;;17.20;87.07;98092.83;106376;1276;138123;-79
2022/07/15 01:10:58;;;;;;;5.20;3.90;;;;;;;17.20;87.08;98089.91;106264;1276;22572;-81
2022/07/15 01:13:39;;;;;;;7.10;4.70;;;;;;;17.17;87.18;98082.63;106689;1277;137724;-79
2022/07/15 01:16:20;;;;;;;6.20;4.50;;;;;;;17.16;87.16;98082.89;106271;1277;24059;-79
2022/07/15 01:18:48;;;;;;;7.70;4.30;;;;;;;17.14;87.27;98079.48;106726;1277;22573;-79
2022/07/15 01:21:17;;;;;;;4.80;4.40;;;;;;;17.12;87.37;98082.04;106283;1275;137896;-79
2022/07/15 01:23:45;;;;;;;4.60;4.20;;;;;;;17.10;87.37;98081.97;106383;1276;24208;-78
2022/07/15 01:26:42;;;;;;;6.50;4.00;;;;;;;17.10;87.39;98084.17;106624;1274;137836;-80
2022/07/15 01:29:11;;;;;;;6.80;4.40;;;;;;;17.11;87.59;98088.17;107283;1276;22534;-79
2022/07/15 01:31:41;;;;;;;5.20;4.80;;;;;;;17.12;87.51;98096.34;106529;1276;137815;-78
2022/07/15 01:34:08;;;;;;;7.50;4.70;;;;;;;17.14;87.72;98095.89;106309;1277;23000;-79
2022/07/15 01:36:51;;;;;;;5.60;5.10;;;;;;;17.16;87.72;98094.38;106546;1275;26240;-78
2022/07/15 01:39:31;;;;;;;6.00;5.30;;;;;;;17.20;87.83;98087.61;106035;1276;137834;-79
2022/07/15 01:42:14;;;;;;;4.80;4.40;;;;;;;17.23;87.74;98088.54;106073;1275;25420;-79
2022/07/15 01:44:54;;;;;;;6.00;5.40;;;;;;;17.25;87.73;98085.05;105953;1276;137762;-78
2022/07/15 01:47:44;;;;;;;9.00;6.00;;;;;;;17.30;87.76;98080.61;106192;1276;25364;-78
2022/07/15 01:50:19;;;;;;;9.70;6.20;;;;;;;17.33;87.91;98076.02;106168;1277;137093;-78
2022/07/15 01:53:00;;;;;;;8.30;6.10;;;;;;;17.37;87.80;98073.58;106883;1275;30303;-79
2022/07/15 01:55:31;;;;;;;6.20;5.60;;;;;;;17.38;87.62;98075.00;106160;1277;138680;-82
2022/07/15 01:58:13;;;;;;;7.70;5.40;;;;;;;17.40;87.51;98082.46;106091;1277;23844;-84
2022/07/15 02:00:41;;;;;;;6.90;5.80;;;;;;;17.41;87.43;98078.86;106421;1277;24224;-81
2022/07/15 02:03:11;;;;;;;6.90;6.10;;;;;;;17.40;87.35;98079.42;106267;1276;137510;-80
2022/07/15 02:05:40;;;;;;;7.70;6.60;;;;;;;17.40;87.44;98080.37;106296;1276;24384;-81
2022/07/15 02:08:07;;;;;;;7.90;6.60;;;;;;;17.39;87.23;98080.77;106300;1276;137725;-80
2022/07/15 02:10:41;;;;;;;8.30;6.00;;;;;;;17.38;87.11;98077.36;106287;1276;22543;-81
2022/07/15 02:13:21;;;;;;;7.00;6.30;;;;;;;17.37;87.07;98076.51;106281;1276;22598;-80
2022/07/15 02:15:53;;;;;;;7.20;6.20;;;;;;;17.37;86.99;98077.17;106066;1276;22560;-80
2022/07/15 02:18:34;;;;;;;7.30;6.60;;;;;;;17.36;87.14;98083.50;106487;1276;25440;-79
2022/07/15 02:21:15;;;;;;;10.90;6.40;;;;;;;17.32;86.76;98087.55;106129;1277;138042;-80
2022/07/15 02:23:42;;;;;;;7.00;6.30;;;;;;;17.26;86.76;98087.46;106167;1276;25619;-80
2022/07/15 02:26:12;;;;;;;6.80;6.00;;;;;;;17.21;86.91;98086.44;106108;1276;138615;-80
2022/07/15 02:28:40;;;;;;;7.40;6.50;;;;;;;17.17;87.05;98088.70;106426;1274;24366;-80
2022/07/15 02:31:07;;;;;;;9.50;7.00;;;;;;;17.13;87.22;98090.33;106152;1274;22530;-79
2022/07/15 02:33:38;;;;;;;7.90;7.10;;;;;;;17.09;87.18;98097.77;105986;1274;137166;-81
2022/07/15 02:36:09;;;;;;;8.70;6.90;;;;;;;17.03;87.35;98099.11;106103;1276;24204;-80
2022/07/15 02:38:38;;;;;;;8.50;6.90;;;;;;;16.99;87.24;98102.86;106070;1276;137956;-79
2022/07/15 02:41:07;;;;;;;10.40;7.10;;;;;;;16.95;87.41;98103.69;106611;1276;22551;-80
2022/07/15 02:43:37;;;;;;;8.70;6.90;;;;;;;16.94;87.65;98106.56;106056;1276;138216;-79
2022/07/15 02:46:13;;;;;;;10.20;6.80;;;;;;;16.90;87.64;98109.26;105982;1276;25342;-80
2022/07/15 02:48:40;;;;;;;8.50;6.90;;;;;;;16.88;87.66;98112.90;105967;1276;24288;-75
2022/07/15 02:51:24;;;;;;;9.20;8.30;;;;;;;16.84;87.58;98113.27;105778;1276;137203;-77
2022/07/15 02:53:53;;;;;;;9.10;7.50;;;;;;;16.79;87.63;98112.39;106188;1277;23045;-77
2022/07/15 02:56:23;;;;;;;18.10;8.00;;;;;;;16.75;87.58;98110.57;105873;1276;137792;-77
2022/07/15 02:58:49;;;;;;;8.80;7.10;;;;;;;16.69;87.97;98114.98;106733;1276;22518;-77
2022/07/15 03:01:17;;;;;;;7.50;6.80;;;;;;;16.67;87.90;98115.67;105930;1276;22534;-78
2022/07/15 03:03:48;;;;;;;8.80;7.70;;;;;;;16.64;88.19;98117.35;105950;1277;137730;-76
2022/07/15 03:06:21;;;;;;;9.20;8.10;;;;;;;16.59;88.14;98120.83;106243;1277;25500;-78
2022/07/15 03:08:49;;;;;;;9.00;8.10;;;;;;;16.52;88.63;98127.77;105813;1277;138310;-78
2022/07/15 03:11:19;;;;;;;9.50;8.50;;;;;;;16.48;88.71;98132.66;106127;1277;24370;-77
2022/07/15 03:13:46;;;;;;;10.10;8.40;;;;;;;16.43;89.25;98135.29;105947;1277;138127;-77
2022/07/15 03:16:14;;;;;;;9.80;8.50;;;;;;;16.37;89.32;98138.20;106032;1276;22579;-79
2022/07/15 03:18:44;;;;;;;11.70;8.70;;;;;;;16.32;89.57;98140.46;106434;1276;24744;-78
2022/07/15 03:21:11;;;;;;;11.10;9.10;;;;;;;16.26;90.03;98139.09;106328;1276;137998;-77
2022/07/15 03:23:38;;;;;;;11.00;8.90;;;;;;;16.23;90.09;98144.57;106598;1277;22563;-78
2022/07/15 03:26:20;;;;;;;11.00;9.10;;;;;;;16.20;90.24;98149.65;106072;1276;138307;-77
2022/07/15 03:28:51;;;;;;;12.60;10.00;;;;;;;16.15;90.29;98145.73;106396;1276;22628;-77
2022/07/15 03:31:18;;;;;;;12.80;10.70;;;;;;;16.15;90.86;98148.38;106108;1277;24259;-77
2022/07/15 03:33:46;;;;;;;14.00;10.00;;;;;;;16.14;90.87;98148.39;106064;1277;138033;-77
2022/07/15 03:36:13;;;;;;;12.10;10.90;;;;;;;16.13;90.70;98146.52;106648;1276;22538;-77
2022/07/15 03:38:40;;;;;;;12.40;10.40;;;;;;;16.13;90.58;98154.23;106151;1278;138602;-76
2022/07/15 03:41:09;;;;;;;13.10;11.80;;;;;;;16.12;90.57;98159.27;106593;1277;25557;-77
2022/07/15 03:43:41;;;;;;;13.40;12.00;;;;;;;16.10;90.47;98163.26;106118;1276;138400;-76
2022/07/15 03:46:08;;;;;;;11.80;10.70;;;;;;;16.05;90.53;98167.47;106387;1276;22763;-77
2022/07/15 03:48:40;;;;;;;15.70;11.90;;;;;;;16.02;90.67;98171.90;106467;1276;25349;-77
2022/07/15 03:51:12;;;;;;;12.50;10.30;;;;;;;15.98;90.66;98178.36;106672;1276;138494;-77
2022/07/15 03:53:39;;;;;;;20.00;11.70;;;;;;;15.97;90.82;98183.37;106468;1277;22557;-77
2022/07/15 03:56:09;;;;;;;17.20;12.10;;;;;;;15.94;91.18;98189.53;106360;1277;138429;-76
2022/07/15 03:58:36;;;;;;;13.80;12.30;;;;;;;15.94;91.17;98191.84;106186;1277;24345;-77
2022/07/15 04:01:04;;;;;;;14.10;12.50;;;;;;;15.95;91.11;98190.34;106508;1277;24227;-76
2022/07/15 04:03:33;;;;;;;14.60;12.50;;;;;;;15.96;90.99;98188.98;106027;1277;138184;-76
2022/07/15 04:06:00;;;;;;;14.90;12.50;;;;;;;15.97;91.26;98183.96;105969;1276;22569;-77
2022/07/15 04:08:27;;;;;;;18.80;15.10;;;;;;;16.00;91.33;98179.88;106639;1276;138097;-76
2022/07/15 04:10:56;;;;;;;18.20;15.30;;;;;;;16.06;91.01;98178.77;106190;1276;22630;-77
2022/07/15 04:13:23;;;;;;;19.70;17.00;;;;;;;16.11;90.95;98179.45;106174;1276;22544;-77
2022/07/15 04:15:51;;;;;;;18.30;16.00;;;;;;;16.17;90.86;98180.29;106286;1276;137727;-77
2022/07/15 04:18:18;;;;;;;19.60;14.80;;;;;;;16.22;90.53;98182.16;105983;1277;22544;-76
2022/07/15 04:20:49;;;;;;;16.70;13.30;;;;;;;16.27;90.06;98182.83;106459;1276;138337;-76
2022/07/15 04:23:16;;;;;;;18.70;16.70;;;;;;;16.30;89.12;98188.02;106564;1275;22563;-77
2022/07/15 04:25:43;;;;;;;19.60;17.50;;;;;;;16.31;89.02;98192.08;105819;1277;137882;-77
2022/07/15 04:28:10;;;;;;;16.60;14.90;;;;;;;16.30;88.74;98205.55;106704;1277;22572;-77
2022/07/15 04:30:37;;;;;;;18.10;15.70;;;;;;;16.28;88.84;98221.39;106336;1277;22533;-77
2022/07/15 04:33:09;;;;;;;23.10;16.00;;;;;;;16.27;89.38;98244.70;105963;1277;138282;-77
2022/07/15 04:35:42;;;;;;;17.80;15.90;;;;;;;16.23;89.40;98240.18;106446;1276;22714;-77
2022/07/15 04:38:14;;;;;;;18.50;15.30;;;;;;;16.16;88.85;98238.48;106149;1276;138514;-77
2022/07/15 04:40:48;;;;;;;17.90;14.80;;;;;;;16.10;88.07;98247.42;106177;1276;25243;-77
2022/07/15 04:43:17;;;;;;;17.80;14.90;;;;;;;16.05;88.46;98251.20;105968;1276;25044;-78
2022/07/15 04:45:45;;;;;;;16.40;14.70;;;;;;;16.02;88.50;98251.83;105973;1276;138315;-78
2022/07/15 04:51:04;;;;;;;19.10;15.30;;;;;;;16.01;88.95;98260.57;106053;1277;138188;-78
2022/07/15 04:53:38;;;;;;;17.60;14.00;;;;;;;16.02;89.23;98269.73;106156;1276;24386;-78
2022/07/15 04:56:08;;;;;;;16.60;13.60;;;;;;;16.05;89.31;98273.66;106350;1274;138691;-78
2022/07/15 04:58:36;;;;;;;15.50;13.10;;;;;;;16.06;88.76;98278.38;106315;1277;22545;-78
2022/07/15 05:01:05;;;;;;;13.20;11.90;;;;;;;16.06;88.10;98287.29;106910;1277;23511;-77
2022/07/15 05:03:46;;;;;;;11.30;10.20;;;;;;;16.03;87.43;98288.67;106011;1277;138801;-78
2022/07/15 05:06:14;;;;;;;13.00;10.70;;;;;;;15.99;86.16;98295.58;106581;1277;24383;-78
2022/07/15 05:08:41;;;;;;;9.30;8.40;;;;;;;15.96;86.20;98294.98;106812;1276;138415;-80
2022/07/15 05:11:09;;;;;;;9.40;7.90;;;;;;;15.93;85.81;98298.52;106517;1277;22546;-79
2022/07/15 05:13:37;;;;;;;12.90;7.70;;;;;;;15.93;85.83;98295.66;106664;1277;138470;-78
2022/07/15 05:16:05;;;;;;;7.80;7.00;;;;;;;15.93;85.12;98298.73;106513;1276;23460;-78
2022/07/15 05:18:46;;;;;;;9.30;6.60;;;;;;;15.94;84.82;98296.37;106256;1277;23231;-78
2022/07/15 05:21:16;;;;;;;7.40;5.90;;;;;;;15.97;84.27;98302.51;106197;1277;137567;-78
2022/07/15 05:23:43;;;;;;;9.20;6.40;;;;;;;16.03;84.02;98308.90;106682;1277;25272;-79
2022/07/15 05:26:11;;;;;;;7.90;6.10;;;;;;;16.08;84.00;98310.95;106043;1277;138198;-80
2022/07/15 05:28:41;;;;;;;8.10;5.20;;;;;;;16.14;83.42;98309.21;106901;1277;24080;-78
2022/07/15 05:31:08;;;;;;;6.30;4.60;;;;;;;16.17;81.53;98314.20;106382;1277;22551;-78
2022/07/15 05:33:35;;;;;;;9.20;3.30;;;;;;;16.22;80.40;98320.64;105851;1277;137537;-78
2022/07/15 05:36:04;;;;;;;6.10;3.60;;;;;;;16.28;80.82;98328.67;107238;1278;22560;-78
2022/07/15 05:38:32;;;;;;;6.10;3.50;;;;;;;16.36;80.51;98327.30;106277;1277;137747;-78
2022/07/15 05:41:00;;;;;;;6.20;3.40;;;;;;;16.43;79.60;98330.17;106951;1277;24371;-77
2022/07/15 05:43:28;;;;;;;7.20;3.50;;;;;;;16.51;79.55;98334.16;106203;1277;23744;-78
2022/07/15 05:45:55;;;;;;;4.60;2.80;;;;;;;16.59;79.07;98335.19;106257;1276;137239;-78
2022/07/15 05:48:23;;;;;;;5.40;2.90;;;;;;;16.67;77.91;98340.10;106348;1277;22537;-77
2022/07/15 05:51:06;;;;;;;6.70;3.30;;;;;;;16.74;76.86;98341.94;106633;1277;137456;-78
2022/07/15 05:53:33;;;;;;;4.80;2.70;;;;;;;16.81;75.86;98347.34;105646;1277;25474;-79
2022/07/15 05:56:05;;;;;;;3.30;2.30;;;;;;;16.87;75.86;98345.10;105856;1281;137298;-78
2022/07/15 05:58:34;;;;;;;3.00;2.60;;;;;;;16.92;74.52;98348.86;106221;1277;24315;-78
2022/07/15 06:01:03;;;;;;;3.00;1.80;;;;;;;16.98;73.66;98355.29;106716;1277;23246;-78
2022/07/15 06:03:35;;;;;;;4.60;2.80;;;;;;;17.04;71.42;98360.09;107108;1276;137347;-79
2022/07/15 06:06:05;;;;;;;8.80;2.50;;;;;;;17.09;72.14;98359.55;106591;1277;22738;-78
2022/07/15 06:08:34;;;;;;;4.50;1.70;;;;;;;17.15;71.27;98362.79;106476;1276;137219;-78
2022/07/15 06:11:02;;;;;;;4.70;1.90;;;;;;;17.21;69.35;98369.05;106830;1277;22609;-78
2022/07/15 06:13:29;;;;;;;7.90;2.10;;;;;;;17.27;68.48;98369.98;106477;1277;22571;-79
2022/07/15 06:16:10;;;;;;;3.60;1.20;;;;;;;17.34;67.94;98372.30;106512;1277;23293;-79
2022/07/15 06:18:51;;;;;;;3.60;1.50;;;;;;;17.39;66.02;98377.39;106311;1277;25360;-78
2022/07/15 06:21:19;;;;;;;4.10;1.80;;;;;;;17.45;66.31;98381.30;106255;1277;137129;-78
2022/07/15 06:23:46;;;;;;;2.00;1.10;;;;;;;17.51;65.56;98383.00;106316;1277;22585;-78
2022/07/15 06:26:13;;;;;;;3.20;0.90;;;;;;;17.54;63.21;98389.84;106493;1276;137251;-78
2022/07/15 06:28:42;;;;;;;1.70;1.20;;;;;;;17.57;63.16;98385.91;106370;1276;30771;-80
2022/07/15 06:31:09;;;;;;;1.90;1.00;;;;;;;17.59;61.68;98386.97;106341;1278;22570;-79
2022/07/15 06:33:37;;;;;;;4.10;1.20;;;;;;;17.61;61.02;98388.60;106203;1277;137478;-78
2022/07/15 06:36:06;;;;;;;2.50;0.90;;;;;;;17.65;60.69;98391.05;106031;1278;22646;-77
2022/07/15 06:38:36;;;;;;;2.30;0.90;;;;;;;17.70;60.27;98393.14;106498;1277;137417;-77
2022/07/15 06:41:17;;;;;;;2.30;0.80;;;;;;;17.76;59.77;98398.89;106717;1277;22535;-78
2022/07/15 06:43:45;;;;;;;4.30;1.00;;;;;;;17.80;58.36;98394.11;106018;1277;137881;-80
2022/07/15 06:46:26;;;;;;;3.80;0.80;;;;;;;17.86;57.48;98398.91;106685;1277;22576;-77
2022/07/15 06:49:08;;;;;;;2.60;1.00;;;;;;;17.90;57.17;98403.55;106124;1277;30391;-77
2022/07/15 06:51:49;;;;;;;3.20;1.10;;;;;;;17.97;58.77;98404.34;106455;1277;137402;-79
2022/07/15 06:54:18;;;;;;;7.20;1.10;;;;;;;18.02;56.52;98409.69;106402;1277;22776;-78
2022/07/15 06:56:48;;;;;;;5.50;1.10;;;;;;;18.05;56.27;98412.69;106446;1277;137314;-78
2022/07/15 06:59:15;;;;;;;3.10;1.20;;;;;;;18.08;55.43;98413.80;106756;1276;25379;-78
2022/07/15 07:01:57;;;;;;;3.20;0.90;;;;;;;18.13;57.17;98412.20;106323;1277;137342;-78
2022/07/15 07:04:24;;;;;;;2.10;0.80;;;;;;;18.21;56.89;98414.41;106829;1277;22561;-78
2022/07/15 07:07:05;;;;;;;2.30;1.00;;;;;;;18.30;56.10;98421.62;106704;1277;22543;-77
2022/07/15 07:09:32;;;;;;;2.70;0.80;;;;;;;18.37;56.09;98421.64;106654;1277;137514;-77
2022/07/15 07:12:13;;;;;;;2.50;1.10;;;;;;;18.45;55.02;98421.45;106215;1277;23819;-79
2022/07/15 07:14:54;;;;;;;2.80;0.80;;;;;;;18.56;55.77;98424.23;106090;1277;137921;-79
2022/07/15 07:17:21;;;;;;;1.90;0.60;;;;;;;18.63;55.25;98431.23;106729;1277;25100;-79
2022/07/15 07:19:48;;;;;;;2.70;0.80;;;;;;;18.68;53.54;98427.36;106143;1277;137685;-79
2022/07/15 07:22:15;;;;;;;3.60;0.60;;;;;;;18.73;54.59;98431.55;106337;1277;23195;-79
2022/07/15 07:24:42;;;;;;;1.80;0.50;;;;;;;18.77;52.79;98429.30;106695;1277;22866;-78
2022/07/15 07:27:10;;;;;;;1.60;0.80;;;;;;;18.83;53.78;98431.83;106112;1276;137397;-77
2022/07/15 07:29:37;;;;;;;6.40;0.80;;;;;;;18.87;52.24;98435.33;106435;1277;23918;-80
2022/07/15 07:32:05;;;;;;;1.60;0.80;;;;;;;18.90;51.82;98439.36;106814;1274;137426;-79
2022/07/15 07:34:32;;;;;;;1.40;0.50;;;;;;;18.93;52.11;98442.63;107314;1277;22592;-78
2022/07/15 07:36:59;;;;;;;1.30;0.60;;;;;;;18.97;51.78;98445.48;106372;1277;22557;-78
2022/07/15 07:39:40;;;;;;;4.40;0.90;;;;;;;19.02;51.48;98447.34;106388;1274;137110;-77
2022/07/15 07:42:22;;;;;;;4.90;1.00;;;;;;;19.09;52.23;98454.84;107028;1274;22643;-77
2022/07/15 07:44:50;;;;;;;2.80;0.90;;;;;;;19.15;51.05;98454.52;106537;1274;137215;-77
2022/07/15 07:47:17;;;;;;;2.40;0.90;;;;;;;19.20;52.16;98454.77;106487;1274;22710;-78
2022/07/15 07:49:44;;;;;;;2.30;1.00;;;;;;;19.27;52.23;98457.24;106492;1274;137918;-78
2022/07/15 07:52:18;;;;;;;3.20;1.00;;;;;;;19.33;52.14;98458.64;106525;1277;22541;-77
2022/07/15 07:54:46;;;;;;;2.70;0.90;;;;;;;19.40;52.43;98456.13;106373;1277;25313;-77
2022/07/15 07:57:13;;;;;;;1.70;1.10;;;;;;;19.45;52.20;98458.85;106368;1277;137790;-78
2022/07/15 07:59:40;;;;;;;4.80;0.90;;;;;;;19.49;51.58;98465.19;107439;1276;23035;-79
2022/07/15 08:02:07;;;;;;;8.00;1.40;;;;;;;19.55;52.56;98464.05;106863;1276;138740;-79
2022/07/15 08:04:35;;;;;;;4.50;1.50;;;;;;;19.65;53.23;98465.90;106380;1274;22542;-77
2022/07/15 08:07:29;;;;;;;6.10;1.60;;;;;;;19.81;53.16;98464.20;106352;1276;25457;-78
2022/07/15 08:10:06;;;;;;;2.70;1.10;;;;;;;19.95;51.91;98469.55;107012;1277;22601;-78
2022/07/15 08:12:33;;;;;;;2.90;1.30;;;;;;;19.88;50.70;98472.37;106368;1277;22531;-80
2022/07/15 08:15:01;;;;;;;5.70;1.60;;;;;;;19.93;51.81;98475.53;106369;1277;137547;-78
2022/07/15 08:17:34;;;;;;;4.50;1.60;;;;;;;20.03;52.20;98475.05;105946;1277;583613;-78
2022/07/15 08:20:02;;;;;;;4.50;1.50;;;;;;;20.14;51.80;98470.63;106649;1274;137631;-78
2022/07/15 08:22:43;;;;;;;5.50;1.50;;;;;;;20.03;50.94;98478.27;106482;1275;23784;-78
2022/07/15 08:25:11;;;;;;;3.10;1.50;;;;;;;19.84;51.27;98480.23;106623;1274;22534;-78
2022/07/15 08:27:38;;;;;;;3.90;1.60;;;;;;;19.74;51.79;98481.17;106477;1274;137077;-78
2022/07/15 08:30:06;;;;;;;6.00;2.10;;;;;;;19.81;52.12;98483.95;106588;1274;23494;-78
2022/07/15 08:32:33;;;;;;;3.40;1.30;;;;;;;19.93;52.97;98479.83;106538;1276;137296;-78
2022/07/15 08:35:00;;;;;;;4.30;1.30;;;;;;;20.00;52.81;98487.83;106320;1276;25256;-81
2022/07/15 08:37:28;;;;;;;3.60;2.00;;;;;;;20.17;52.14;98487.83;106705;1275;22605;-81
2022/07/15 08:40:10;;;;;;;5.00;1.50;;;;;;;20.40;52.46;98489.23;107288;1275;22552;-78
2022/07/15 08:42:43;;;;;;;3.30;1.00;;;;;;;20.63;51.50;98484.14;106673;1275;23094;-78
2022/07/15 08:45:24;;;;;;;5.10;1.40;;;;;;;20.84;51.02;98487.02;106709;1274;138091;-78
2022/07/15 08:48:06;;;;;;;2.30;0.90;;;;;;;21.03;50.59;98484.30;107109;1275;25371;-79
2022/07/15 08:50:35;;;;;;;2.50;1.10;;;;;;;21.16;50.11;98487.44;106707;1274;137689;-79
2022/07/15 08:53:04;;;;;;;6.50;1.40;;;;;;;20.99;49.09;98493.33;107257;1274;25288;-80
2022/07/15 08:55:31;;;;;;;2.70;0.90;;;;;;;20.87;48.97;98489.61;107103;1277;22534;-78
2022/07/15 08:58:00;;;;;;;4.90;1.10;;;;;;;20.70;49.22;98495.19;106387;1274;22556;-78
2022/07/15 09:00:28;;;;;;;4.40;1.10;;;;;;;20.69;51.10;98499.22;106753;1275;22622;-78
2022/07/15 09:02:58;;;;;;;2.20;1.10;;;;;;;20.78;50.17;98496.18;106800;1274;137584;-79
2022/07/15 09:05:33;;;;;;;3.40;1.10;;;;;;;20.75;49.83;98500.41;107156;1274;22707;-78
2022/07/15 09:08:13;;;;;;;3.40;1.50;;;;;;;20.59;48.72;98499.47;106566;1274;137414;-79
2022/07/15 09:10:51;;;;;;;1.30;0.90;;;;;;;20.55;48.77;98498.66;106270;1274;25235;-79
2022/07/15 09:13:33;;;;;;;2.50;1.20;;;;;;;20.70;49.23;98498.67;107428;1274;23176;-79
2022/07/15 09:16:08;;;;;;;4.00;1.80;;;;;;;20.72;48.70;98496.94;106263;1276;30197;-79
2022/07/15 09:18:42;;;;;;;3.00;1.50;;;;;;;20.83;48.75;98497.78;106303;1274;22560;-79
2022/07/15 09:21:20;;;;;;;3.90;1.20;;;;;;;21.08;50.09;98504.73;106419;1274;137225;-79
2022/07/15 09:23:48;;;;;;;2.80;1.40;;;;;;;21.32;49.00;98501.05;107654;1274;22573;-80
2022/07/15 09:26:29;;;;;;;4.30;1.80;;;;;;;21.36;49.38;98503.45;106665;1275;137614;-81
2022/07/15 09:36:02;;;;;;;6.70;1.50;;;;;;;20.97;48.99;98513.29;106528;1276;23071;-80
2022/07/15 09:38:35;;;;;;;3.20;1.50;;;;;;;20.96;48.51;98507.19;106928;1276;137706;-79
2022/07/15 09:41:02;;;;;;;2.70;1.20;;;;;;;21.10;49.72;98505.75;106934;1274;25049;-80
2022/07/15 09:43:51;;;;;;;4.10;1.00;;;;;;;21.34;48.88;98509.83;106238;1274;22673;-79
2022/07/15 09:46:20;;;;;;;4.10;0.80;;;;;;;21.61;46.81;98509.29;106471;1274;22601;-78
2022/07/15 09:49:02;;;;;;;2.10;0.80;;;;;;;21.83;47.48;98493.56;106315;1274;23358;-78
2022/07/15 09:51:29;;;;;;;3.80;1.00;;;;;;;21.90;46.54;98496.20;106123;1274;137040;-79
2022/07/15 09:53:57;;;;;;;1.60;1.10;;;;;;;21.60;45.37;98508.95;106611;1274;25442;-81
2022/07/15 09:56:26;;;;;;;2.30;0.80;;;;;;;21.28;45.53;98513.34;106550;1274;137383;-78
2022/07/15 09:58:53;;;;;;;1.70;0.70;;;;;;;21.37;46.44;98510.58;106460;1274;23279;-79
2022/07/15 10:01:36;;;;;;;1.50;0.90;;;;;;;21.61;46.00;98512.09;106766;1277;22556;-80
2022/07/15 10:04:27;;;;;;;1.90;0.90;;;;;;;21.67;47.03;98513.11;106662;1274;26733;-78
2022/07/15 10:06:57;;;;;;;2.90;1.00;;;;;;;21.82;47.80;98519.10;106352;1274;23026;-78
2022/07/15 10:09:27;;;;;;;1.60;1.00;;;;;;;22.11;46.38;98509.84;106318;1274;137207;-78
2022/07/15 10:12:17;;;;;;;2.80;0.90;;;;;;;22.16;45.77;98505.91;106443;1277;24258;-79
2022/07/15 10:15:00;;;;;;;3.90;1.60;;;;;;;22.01;47.32;98509.21;106856;1274;137373;-80
2022/07/15 10:18:05;;;;;;;1.40;0.80;;;;;;;21.80;46.52;98512.11;106341;1277;22580;-78
2022/07/15 10:20:58;;;;;;;1.90;1.00;;;;;;;21.59;45.98;98511.66;106315;1274;137778;-79
2022/07/15 10:23:54;;;;;;;5.70;1.00;;;;;;;21.69;47.09;98510.09;106406;1274;22550;-80
2022/07/15 10:27:02;;;;;;;2.80;1.30;;;;;;;22.01;45.92;98510.14;106303;1274;137243;-78
2022/07/15 10:29:33;;;;;;;2.20;0.80;;;;;;;22.24;45.51;98507.64;106484;1274;22619;-79
2022/07/15 10:32:02;;;;;;;2.10;0.90;;;;;;;22.48;45.96;98503.14;106444;1274;137782;-79
2022/07/15 10:34:34;;;;;;;5.20;1.30;;;;;;;22.79;45.66;98509.72;106433;1274;22547;-79
2022/07/15 10:37:10;;;;;;;2.30;0.90;;;;;;;23.08;45.46;98509.45;106463;1274;25325;-79
2022/07/15 10:39:48;;;;;;;0.80;0.60;;;;;;;22.95;43.90;98511.83;106496;1274;137604;-81
2022/07/15 10:43:05;;;;;;;1.00;0.60;;;;;;;22.76;42.75;98512.69;106526;1274;25565;-79
2022/07/15 10:46:03;;;;;;;3.10;1.10;;;;;;;22.78;42.94;98514.20;106764;1274;137615;-85
2022/07/15 10:48:58;;;;;;;4.40;1.30;;;;;;;23.03;43.69;98509.83;106947;1274;25494;-80
2022/07/15 10:51:36;;;;;;;3.90;0.90;;;;;;;23.25;43.37;98510.19;107097;1274;137990;-78
2022/07/15 10:54:18;;;;;;;4.00;0.90;;;;;;;23.50;41.71;98513.95;106981;1274;24716;-78
2022/07/15 10:56:54;;;;;;;1.80;0.90;;;;;;;23.53;41.35;98513.60;107417;1274;137230;-79
2022/07/15 10:59:26;;;;;;;2.70;0.80;;;;;;;23.62;40.79;98514.70;107524;1274;30277;-79
2022/07/15 11:02:01;;;;;;;1.60;1.10;;;;;;;23.67;39.97;98511.22;107728;1274;137530;-78
2022/07/15 11:04:44;;;;;;;3.20;0.80;;;;;;;23.74;40.73;98511.11;106759;1274;23280;-79
2022/07/15 11:07:35;;;;;;;6.70;0.90;;;;;;;23.69;40.05;98508.03;106805;1274;22690;-78
2022/07/15 11:10:25;;;;;;;4.60;1.00;;;;;;;23.37;40.26;98518.35;107572;1274;22860;-78
2022/07/15 11:12:52;;;;;;;3.40;0.90;;;;;;;23.03;41.17;98519.69;107600;1274;22553;-80
2022/07/15 11:15:25;;;;;;;2.20;1.00;;;;;;;22.64;41.94;98519.11;107058;1274;137485;-81
2022/07/15 11:18:03;;;;;;;2.90;1.00;;;;;;;22.54;43.03;98519.67;107087;1274;25423;-80
2022/07/15 11:20:36;;;;;;;1.70;0.90;;;;;;;22.27;42.83;98519.77;107094;1274;137689;-79
2022/07/15 11:23:06;;;;;;;3.10;0.90;;;;;;;22.09;43.44;98518.09;106765;1274;22542;-78
2022/07/15 11:25:37;;;;;;;3.70;1.10;;;;;;;22.38;45.17;98522.95;106188;1275;25426;-80
2022/07/15 11:28:21;;;;;;;4.00;1.00;;;;;;;22.83;44.31;98524.13;106959;1276;26536;-80
2022/07/15 11:31:02;;;;;;;2.30;1.20;;;;;;;23.14;43.02;98528.92;106523;1274;22535;-80
2022/07/15 11:33:33;;;;;;;1.50;1.10;;;;;;;23.30;41.60;98527.29;106125;1274;137328;-79
2022/07/15 11:36:04;;;;;;;3.10;1.00;;;;;;;23.20;40.90;98525.16;106517;1274;22551;-78
2022/07/15 11:38:43;;;;;;;2.90;1.00;;;;;;;22.78;41.62;98528.95;106775;1274;137245;-79
2022/07/15 11:47:12;;;;;;;3.30;1.00;;;;;;;22.59;41.65;98533.30;106676;1274;22534;-79
2022/07/15 11:49:41;;;;;;;2.20;0.90;;;;;;;22.49;42.22;98533.80;106452;1274;137970;-79
2022/07/15 11:52:22;;;;;;;2.30;0.80;;;;;;;22.31;41.88;98530.04;106259;1274;22541;-79
2022/07/15 11:54:49;;;;;;;1.80;0.80;;;;;;;22.35;41.44;98536.80;106455;1276;22551;-79
2022/07/15 11:57:20;;;;;;;4.30;0.70;;;;;;;22.61;41.75;98533.73;106840;1274;137644;-78
2022/07/15 11:59:55;;;;;;;3.60;0.70;;;;;;;22.65;40.63;98533.90;106359;1275;24432;-78
2022/07/15 12:02:30;;;;;;;2.50;0.90;;;;;;;22.85;40.12;98532.17;106428;1274;137342;-78
2022/07/15 12:05:10;;;;;;;1.90;0.80;;;;;;;23.16;41.72;98536.09;106261;1274;25242;-78